createdAt,value
2019-05-25T00:01:41.266Z,98135.42
2019-05-25T00:06:46.575Z,98136.56
2019-05-25T00:11:51.819Z,98149.00
2019-05-25T00:16:57.065Z,98142.95
2019-05-25T00:22:02.298Z,98143.34
2019-05-25T00:27:07.858Z,98146.82
2019-05-25T00:32:13.048Z,98139.13
2019-05-25T00:37:18.794Z,98143.35
2019-05-25T00:42:24.446Z,98148.11
2019-05-25T00:47:29.699Z,98154.53
2019-05-25T00:52:35.026Z,98150.88
2019-05-25T00:57:40.280Z,98155.25
2019-05-25T01:02:45.527Z,98158.67
2019-05-25T01:07:51.054Z,98159.73
2019-05-25T01:12:56.307Z,98157.91
2019-05-25T01:18:01.567Z,98156.03
2019-05-25T01:23:07.420Z,98152.36
2019-05-25T01:28:13.222Z,98147.63
2019-05-25T01:33:18.480Z,98145.27
2019-05-25T01:38:23.724Z,98146.96
2019-05-25T01:43:28.976Z,98153.03
2019-05-25T01:48:34.233Z,98147.82
2019-05-25T01:53:39.507Z,98150.70
2019-05-25T01:58:45.002Z,98152.23
2019-05-25T02:03:50.626Z,98150.89
2019-05-25T02:08:55.881Z,98149.69
2019-05-25T02:14:01.211Z,98155.42
2019-05-25T02:19:07.232Z,98154.41
2019-05-25T02:24:12.801Z,98154.26
2019-05-25T02:29:18.157Z,98163.41
2019-05-25T02:34:23.723Z,98170.12
2019-05-25T02:39:29.371Z,98167.27
2019-05-25T02:44:34.617Z,98166.42
2019-05-25T02:49:40.192Z,98168.45
2019-05-25T02:54:45.445Z,98163.91
2019-05-25T02:59:50.715Z,98157.17
2019-05-25T03:04:55.960Z,98166.94
2019-05-25T03:10:03.715Z,98165.23
2019-05-25T03:15:09.112Z,98164.57
2019-05-25T03:20:14.592Z,98180.92
2019-05-25T03:25:19.950Z,98189.51
2019-05-25T03:30:35.648Z,98186.98
2019-05-25T03:35:40.944Z,98194.56
2019-05-25T03:40:47.047Z,98194.88
2019-05-25T03:45:52.218Z,98191.69
2019-05-25T03:50:57.923Z,98193.22
2019-05-25T03:56:06.230Z,98188.17
2019-05-25T04:01:10.609Z,98183.46
2019-05-25T04:06:15.894Z,98185.80
2019-05-25T04:11:21.131Z,98190.84
2019-05-25T04:16:26.781Z,98186.14
2019-05-25T04:21:32.057Z,98193.88
2019-05-25T04:26:37.323Z,98195.22
2019-05-25T04:31:43.162Z,98203.13
2019-05-25T04:36:48.419Z,98210.37
2019-05-25T04:41:53.715Z,98215.41
2019-05-25T04:46:58.938Z,98223.16
2019-05-25T04:52:04.284Z,98232.21
2019-05-25T04:57:09.688Z,98236.41
2019-05-25T05:02:15.309Z,98244.81
2019-05-25T05:07:20.556Z,98248.06
2019-05-25T05:12:25.801Z,98247.20
2019-05-25T05:17:31.095Z,98250.88
2019-05-25T05:22:36.323Z,98254.24
2019-05-25T05:27:41.580Z,98252.61
2019-05-25T05:32:46.836Z,98257.48
2019-05-25T05:37:52.576Z,98257.63
2019-05-25T05:43:00.455Z,98259.02
2019-05-25T05:48:05.786Z,98256.95
2019-05-25T05:53:11.020Z,98262.68
2019-05-25T05:58:16.565Z,98266.88
2019-05-25T06:03:21.824Z,98269.56
2019-05-25T06:08:27.098Z,98273.75
2019-05-25T06:13:32.326Z,98283.00
2019-05-25T06:18:37.566Z,98275.24
2019-05-25T06:23:43.127Z,98281.33
2019-05-25T06:28:48.442Z,98281.13
2019-05-25T06:33:54.031Z,98294.97
2019-05-25T06:39:00.265Z,98298.31
2019-05-25T06:44:05.699Z,98304.44
2019-05-25T06:49:10.931Z,98297.56
2019-05-25T06:54:16.159Z,98308.22
2019-05-25T06:59:21.314Z,98308.95
2019-05-25T07:04:27.210Z,98314.03
2019-05-25T07:09:32.442Z,98315.37
2019-05-25T07:14:38.035Z,98319.34
2019-05-25T07:19:43.262Z,98316.55
2019-05-25T07:24:48.486Z,98317.63
2019-05-25T07:29:53.716Z,98324.37
2019-05-25T07:34:58.949Z,98319.44
2019-05-25T07:40:04.588Z,98325.25
2019-05-25T07:45:10.223Z,98331.65
2019-05-25T07:50:16.052Z,98332.25
2019-05-25T07:55:21.592Z,98341.60
2019-05-25T08:00:26.926Z,98343.52
2019-05-25T08:05:32.183Z,98347.98
2019-05-25T08:10:37.736Z,98347.98
2019-05-25T08:15:43.526Z,98353.50
2019-05-25T08:20:49.489Z,98345.00
2019-05-25T08:25:54.995Z,98353.67
2019-05-25T08:31:01.405Z,98361.44
2019-05-25T08:36:07.033Z,98364.64
2019-05-25T08:41:12.276Z,98371.30
2019-05-25T08:46:18.846Z,98355.76
2019-05-25T08:51:24.088Z,98359.70
2019-05-25T08:56:29.654Z,98355.17
2019-05-25T09:01:34.960Z,98348.59
2019-05-25T09:06:40.297Z,98347.35
2019-05-25T09:11:45.882Z,98349.42
2019-05-25T09:16:51.194Z,98346.58
2019-05-25T09:22:02.660Z,98352.20
2019-05-25T09:27:03.508Z,98345.47
2019-05-25T09:32:08.733Z,98348.50
2019-05-25T09:37:14.293Z,98340.45
2019-05-25T09:42:19.853Z,98344.28
2019-05-25T09:47:25.098Z,98349.09
2019-05-25T09:52:30.356Z,98343.18
2019-05-25T09:57:35.596Z,98340.81
2019-05-25T10:02:41.854Z,98345.19
2019-05-25T10:07:47.363Z,98343.08
2019-05-25T10:12:53.006Z,98336.62
2019-05-25T10:17:58.287Z,98339.78
2019-05-25T10:23:03.824Z,98327.53
2019-05-25T10:28:09.060Z,98334.63
2019-05-25T10:33:14.313Z,98344.96
2019-05-25T10:38:19.911Z,98341.28
2019-05-25T10:43:26.527Z,98335.81
2019-05-25T10:48:32.097Z,98336.85
2019-05-25T10:53:37.334Z,98335.80
2019-05-25T10:58:42.582Z,98330.19
2019-05-25T11:03:47.860Z,98336.23
2019-05-25T11:08:53.191Z,98336.02
2019-05-25T11:13:58.813Z,98337.17
2019-05-25T11:19:04.066Z,98332.35
2019-05-25T11:24:09.307Z,98324.83
2019-05-25T11:29:14.875Z,98322.63
2019-05-25T11:34:20.161Z,98319.67
2019-05-25T11:39:25.494Z,98319.58
2019-05-25T11:44:30.711Z,98320.17
2019-05-25T11:49:35.995Z,98317.91
2019-05-25T11:54:42.568Z,98325.64
2019-05-25T11:59:47.874Z,98317.84
2019-05-25T12:04:53.148Z,98313.89
2019-05-25T12:09:58.394Z,98314.24
2019-05-25T12:15:03.639Z,98307.47
2019-05-25T12:20:11.645Z,98302.39
2019-05-25T12:25:17.991Z,98301.89
2019-05-25T12:30:23.315Z,98297.95
2019-05-25T12:35:28.932Z,98295.47
2019-05-25T12:40:34.175Z,98290.31
2019-05-25T12:45:42.070Z,98300.89
2019-05-25T12:50:46.665Z,98298.08
2019-05-25T12:55:51.921Z,98306.66
2019-05-25T13:00:57.276Z,98310.09
2019-05-25T13:06:02.842Z,98309.16
2019-05-25T13:11:09.660Z,98307.24
2019-05-25T13:16:15.179Z,98307.91
2019-05-25T13:21:20.414Z,98302.65
2019-05-25T13:26:25.655Z,98301.47
2019-05-25T13:31:30.827Z,98300.77
2019-05-25T13:36:36.065Z,98296.61
2019-05-25T13:41:41.329Z,98300.34
2019-05-25T13:46:46.593Z,98285.02
2019-05-25T13:51:51.861Z,98285.33
2019-05-25T13:56:57.109Z,98288.25
2019-05-25T14:02:02.650Z,98281.94
2019-05-25T14:07:08.536Z,98279.30
2019-05-25T14:12:13.775Z,98283.63
2019-05-25T14:17:19.023Z,98282.05
2019-05-25T14:22:24.599Z,98279.39
2019-05-25T14:27:29.789Z,98265.56
2019-05-25T14:32:35.372Z,98271.37
2019-05-25T14:37:40.607Z,98258.91
2019-05-25T14:42:45.873Z,98253.91
2019-05-25T14:47:51.310Z,98261.67
2019-05-25T14:52:57.429Z,98252.43
2019-05-25T14:58:03.857Z,98248.92
2019-05-25T15:03:09.461Z,98254.16
2019-05-25T15:08:14.700Z,98239.74
2019-05-25T15:13:20.425Z,98248.41
2019-05-25T15:18:25.680Z,98253.69
2019-05-25T15:23:30.912Z,98244.55
2019-05-25T15:28:36.161Z,98243.17
2019-05-25T15:33:42.745Z,98256.98
2019-05-25T15:38:48.322Z,98255.61
2019-05-25T15:43:53.679Z,98253.62
2019-05-25T15:48:58.937Z,98250.72
2019-05-25T15:54:04.267Z,98257.83
2019-05-25T15:59:09.497Z,98249.30
2019-05-25T16:04:14.749Z,98258.23
2019-05-25T16:09:19.986Z,98246.97
2019-05-25T16:14:25.263Z,98251.09
2019-05-25T16:19:30.881Z,98252.81
2019-05-25T16:24:36.117Z,98252.80
2019-05-25T16:29:41.345Z,98261.19
2019-05-25T16:34:46.931Z,98258.97
2019-05-25T16:39:53.313Z,98271.33
2019-05-25T16:44:58.578Z,98261.86
2019-05-25T16:50:03.962Z,98267.81
2019-05-25T16:55:10.248Z,98276.58
2019-05-25T17:00:19.978Z,98275.59
2019-05-25T17:05:26.531Z,98270.81
2019-05-25T17:10:31.773Z,98272.90
2019-05-25T17:15:37.036Z,98273.96
2019-05-25T17:20:42.387Z,98277.83
2019-05-25T17:25:47.647Z,98283.32
2019-05-25T17:30:52.964Z,98285.18
2019-05-25T17:35:58.317Z,98291.56
2019-05-25T17:41:03.885Z,98281.42
2019-05-25T17:46:09.131Z,98293.52
2019-05-25T17:51:14.523Z,98296.45
2019-05-25T17:56:20.171Z,98303.83
2019-05-25T18:01:25.435Z,98303.36
2019-05-25T18:06:30.741Z,98304.20
2019-05-25T18:11:35.985Z,98305.48
2019-05-25T18:16:41.244Z,98306.72
2019-05-25T18:21:46.721Z,98318.85
2019-05-25T18:26:51.960Z,98318.41
2019-05-25T18:31:57.211Z,98318.55
2019-05-25T18:37:03.524Z,98311.98
2019-05-25T18:42:09.104Z,98317.02
2019-05-25T18:47:14.773Z,98323.86
2019-05-25T18:52:20.047Z,98321.12
2019-05-25T18:57:25.208Z,98328.80
2019-05-25T19:02:30.470Z,98337.56
2019-05-25T19:07:36.804Z,98342.84
2019-05-25T19:12:42.050Z,98357.75
2019-05-25T19:17:47.285Z,98361.70
2019-05-25T19:22:52.980Z,98364.83
2019-05-25T19:27:58.611Z,98367.55
2019-05-25T19:33:03.852Z,98377.63
2019-05-25T19:38:09.078Z,98395.97
2019-05-25T19:43:14.307Z,98390.95
2019-05-25T19:48:19.540Z,98395.91
2019-05-25T19:53:24.845Z,98403.11
2019-05-25T19:58:30.098Z,98410.42
2019-05-25T20:03:35.459Z,98411.86
2019-05-25T20:08:40.790Z,98414.27
2019-05-25T20:13:46.025Z,98421.58
2019-05-25T20:18:51.286Z,98435.10
2019-05-25T20:23:56.524Z,98437.31
2019-05-25T20:29:02.029Z,98437.63
2019-05-25T20:34:07.247Z,98455.17
2019-05-25T20:39:12.573Z,98461.91
2019-05-25T20:44:18.137Z,98466.98
2019-05-25T20:49:23.411Z,98477.09
2019-05-25T20:54:28.723Z,98475.06
2019-05-25T20:59:34.736Z,98469.47
2019-05-25T21:04:40.010Z,98468.27
2019-05-25T21:09:45.579Z,98474.34
2019-05-25T21:14:51.097Z,98469.25
2019-05-25T21:19:56.327Z,98471.91
2019-05-25T21:25:05.959Z,98478.28
2019-05-25T21:30:10.154Z,98497.09
2019-05-25T21:35:15.906Z,98497.86
2019-05-25T21:40:21.144Z,98495.17
2019-05-25T21:45:26.735Z,98503.77
2019-05-25T21:50:32.082Z,98509.50
2019-05-25T21:55:37.331Z,98507.50
2019-05-25T22:00:43.252Z,98495.66
2019-05-25T22:05:48.565Z,98503.05
2019-05-25T22:10:54.093Z,98508.70
2019-05-25T22:15:59.681Z,98510.18
2019-05-25T22:21:04.944Z,98505.94
2019-05-25T22:26:10.191Z,98499.98
2019-05-25T22:31:15.846Z,98491.37
2019-05-25T22:36:21.170Z,98506.31
2019-05-25T22:41:26.455Z,98500.23
2019-05-25T22:46:31.682Z,98500.77
2019-05-25T22:51:37.229Z,98492.34
2019-05-25T22:56:43.382Z,98498.25
2019-05-25T23:01:48.648Z,98490.66
2019-05-25T23:06:58.124Z,98498.90
2019-05-25T23:12:03.114Z,98485.63
2019-05-25T23:17:08.826Z,98481.90
2019-05-25T23:22:14.054Z,98480.53
2019-05-25T23:27:19.390Z,98481.01
2019-05-25T23:32:24.626Z,98475.42
2019-05-25T23:37:30.085Z,98468.35
2019-05-25T23:42:36.022Z,98461.16
2019-05-25T23:47:41.653Z,98462.84
2019-05-25T23:52:46.925Z,98452.14
2019-05-25T23:57:52.155Z,98456.02
